Bw Prince — LADQ7 — position and weather

sailwx.info

Track history (hours):
 
Tides and Currents Weather Stations Pressure Air Temp Water Temp Dewpoint Dewpoint Depression Visibility Wind Speed Wind Dir Waves Ship Positions

Bw Prince

Last reported at 2015-Jun-29 23:33 UTC. Time now 2015-Jul-01 16:56 UTC.
Position N 37°59' E 123°08'.

Length 225 m; draft 12 m.

Type: Tanker. MMSI: 259708000.

Date/timePositionNaut miles runAvg speedWind from/ knotsBaromVisibWave heightAir tempDewpointWater temp
2015-Jun-29 23:33N 37°59' E 123°08'24816.2
2015-Jun-29 08:17N 38°51' E 117°60'7 9.1
2015-Jun-29 07:33N 38°55' E 117°53'6 5.6
2015-Jun-29 06:25N 38°57' E 117°45'0 0.0
2015-Jun-29 05:31N 38°57' E 117°45'0 0.0
2015-Jun-29 04:31N 38°57' E 117°45'0 0.0
2015-Jun-29 03:31N 38°57' E 117°45'0 0.0
2015-Jun-29 02:25N 38°57' E 117°45'0 0.0
2015-Jun-29 01:31N 38°57' E 117°45'0 0.0
2015-Jun-29 00:31N 38°57' E 117°45'0 0.0
2015-Jun-28 23:31N 38°57' E 117°45'0 0.0
2015-Jun-28 22:31N 38°57' E 117°45'0 0.0
2015-Jun-28 21:31N 38°57' E 117°45'0 0.0
2015-Jun-28 20:31N 38°57' E 117°45'0 0.0
2015-Jun-28 19:31N 38°57' E 117°45'0 0.0
2015-Jun-28 18:31N 38°57' E 117°45'0 0.0
2015-Jun-28 17:31N 38°57' E 117°45'0 0.0
2015-Jun-28 16:31N 38°57' E 117°45'0 0.0
2015-Jun-28 15:31N 38°57' E 117°45'0 0.0
2015-Jun-28 14:25N 38°57' E 117°45'0 0.0
2015-Jun-28 13:31N 38°57' E 117°45'0 0.0
2015-Jun-28 12:31N 38°57' E 117°45'0 0.0
2015-Jun-28 11:31N 38°57' E 117°45'0 0.0
2015-Jun-28 10:31N 38°57' E 117°45'0 0.0
2015-Jun-28 09:31N 38°57' E 117°45'0 0.0
2015-Jun-28 08:31N 38°57' E 117°45'0 0.0
2015-Jun-28 07:31N 38°57' E 117°45'0 0.0
2015-Jun-28 06:31N 38°57' E 117°45'0 0.0
2015-Jun-28 05:31N 38°57' E 117°45'0 0.0
2015-Jun-28 04:31N 38°57' E 117°45'0 0.0
2015-Jun-28 03:25N 38°57' E 117°45'0 0.0
2015-Jun-28 02:25N 38°57' E 117°45'0 0.0
2015-Jun-28 01:31N 38°57' E 117°45'0 0.0
2015-Jun-28 00:25N 38°57' E 117°45'0 0.0
2015-Jun-27 23:31N 38°57' E 117°45'0 0.0
2015-Jun-27 22:31N 38°57' E 117°45'0 0.0
2015-Jun-27 21:25N 38°57' E 117°45'0 0.0
2015-Jun-27 20:31N 38°57' E 117°45'0 0.0
2015-Jun-27 19:31N 38°57' E 117°45'0 0.0
2015-Jun-27 18:31N 38°57' E 117°45'0 0.0
2015-Jun-27 17:31N 38°57' E 117°45'0 0.0
2015-Jun-27 16:31N 38°57' E 117°45'0 0.0
2015-Jun-27 15:31N 38°57' E 117°45'0 0.0
2015-Jun-27 14:31N 38°57' E 117°45'0 0.0
2015-Jun-27 13:31N 38°57' E 117°45'0 0.0
2015-Jun-27 12:31N 38°57' E 117°45'0 0.0
2015-Jun-27 11:32N 38°57' E 117°45'0 0.0
2015-Jun-27 10:25N 38°57' E 117°45'0 0.0
2015-Jun-27 09:31N 38°57' E 117°45'0 0.0
2015-Jun-27 08:31N 38°57' E 117°45'0 0.0
2015-Jun-27 07:31N 38°57' E 117°45'2 2.0
2015-Jun-27 06:33N 38°57' E 117°47'10 9.8
2015-Jun-27 05:33N 38°52' E 117°59'6 6.5
2015-Jun-27 04:33N 38°50' E 118°06'7 6.8
2015-Jun-27 03:30N 38°51' E 118°15'14811.4
2015-Jun-26 14:31N 38°27' E 121°22'1211.0
2015-Jun-26 13:25N 38°24' E 121°37'1011.2
2015-Jun-26 12:33N 38°20' E 121°48'1211.3
2015-Jun-26 11:29N 38°17' E 122°03'1011.3
2015-Jun-26 10:33N 38°13' E 122°16'1111.2
2015-Jun-26 09:33N 38°10' E 122°29'1111.4
2015-Jun-26 08:33N 38°09' E 122°44'2814.1
2015-Jun-26 06:33N 38°08' E 123°20'1514.6
2015-Jun-26 05:33N 37°54' E 123°26'  
Track history (hours):
 
Tides and Currents Weather Stations Pressure Air Temp Water Temp Dewpoint Dewpoint Depression Visibility Wind Speed Wind Dir Waves Ship Positions

Bw Prince

Last reported at 2015-Jun-29 23:33 UTC. Time now 2015-Jul-01 16:56 UTC.
Position N 37°59' E 123°08'.

Length 225 m; draft 12 m.

Type: Tanker. MMSI: 259708000.

Date/timePositionNaut miles runAvg speedWind from/ knotsBaromVisibWave heightAir tempDewpointWater temp
2015-Jun-29 23:33N 37°59' E 123°08'24816.2
2015-Jun-29 08:17N 38°51' E 117°60'7 9.1
2015-Jun-29 07:33N 38°55' E 117°53'6 5.6
2015-Jun-29 06:25N 38°57' E 117°45'0 0.0
2015-Jun-29 05:31N 38°57' E 117°45'0 0.0
2015-Jun-29 04:31N 38°57' E 117°45'0 0.0
2015-Jun-29 03:31N 38°57' E 117°45'0 0.0
2015-Jun-29 02:25N 38°57' E 117°45'0 0.0
2015-Jun-29 01:31N 38°57' E 117°45'0 0.0
2015-Jun-29 00:31N 38°57' E 117°45'0 0.0
2015-Jun-28 23:31N 38°57' E 117°45'0 0.0
2015-Jun-28 22:31N 38°57' E 117°45'0 0.0
2015-Jun-28 21:31N 38°57' E 117°45'0 0.0
2015-Jun-28 20:31N 38°57' E 117°45'0 0.0
2015-Jun-28 19:31N 38°57' E 117°45'0 0.0
2015-Jun-28 18:31N 38°57' E 117°45'0 0.0
2015-Jun-28 17:31N 38°57' E 117°45'0 0.0
2015-Jun-28 16:31N 38°57' E 117°45'0 0.0
2015-Jun-28 15:31N 38°57' E 117°45'0 0.0
2015-Jun-28 14:25N 38°57' E 117°45'0 0.0
2015-Jun-28 13:31N 38°57' E 117°45'0 0.0
2015-Jun-28 12:31N 38°57' E 117°45'0 0.0
2015-Jun-28 11:31N 38°57' E 117°45'0 0.0
2015-Jun-28 10:31N 38°57' E 117°45'0 0.0
2015-Jun-28 09:31N 38°57' E 117°45'0 0.0
2015-Jun-28 08:31N 38°57' E 117°45'0 0.0
2015-Jun-28 07:31N 38°57' E 117°45'0 0.0
2015-Jun-28 06:31N 38°57' E 117°45'0 0.0
2015-Jun-28 05:31N 38°57' E 117°45'0 0.0
2015-Jun-28 04:31N 38°57' E 117°45'0 0.0
2015-Jun-28 03:25N 38°57' E 117°45'0 0.0
2015-Jun-28 02:25N 38°57' E 117°45'0 0.0
2015-Jun-28 01:31N 38°57' E 117°45'0 0.0
2015-Jun-28 00:25N 38°57' E 117°45'0 0.0
2015-Jun-27 23:31N 38°57' E 117°45'0 0.0
2015-Jun-27 22:31N 38°57' E 117°45'0 0.0
2015-Jun-27 21:25N 38°57' E 117°45'0 0.0
2015-Jun-27 20:31N 38°57' E 117°45'0 0.0
2015-Jun-27 19:31N 38°57' E 117°45'0 0.0
2015-Jun-27 18:31N 38°57' E 117°45'0 0.0
2015-Jun-27 17:31N 38°57' E 117°45'0 0.0
2015-Jun-27 16:31N 38°57' E 117°45'0 0.0
2015-Jun-27 15:31N 38°57' E 117°45'0 0.0
2015-Jun-27 14:31N 38°57' E 117°45'0 0.0
2015-Jun-27 13:31N 38°57' E 117°45'0 0.0
2015-Jun-27 12:31N 38°57' E 117°45'0 0.0
2015-Jun-27 11:32N 38°57' E 117°45'0 0.0
2015-Jun-27 10:25N 38°57' E 117°45'0 0.0
2015-Jun-27 09:31N 38°57' E 117°45'0 0.0
2015-Jun-27 08:31N 38°57' E 117°45'0 0.0
2015-Jun-27 07:31N 38°57' E 117°45'2 2.0
2015-Jun-27 06:33N 38°57' E 117°47'10 9.8
2015-Jun-27 05:33N 38°52' E 117°59'6 6.5
2015-Jun-27 04:33N 38°50' E 118°06'7 6.8
2015-Jun-27 03:30N 38°51' E 118°15'14811.4
2015-Jun-26 14:31N 38°27' E 121°22'1211.0
2015-Jun-26 13:25N 38°24' E 121°37'1011.2
2015-Jun-26 12:33N 38°20' E 121°48'1211.3
2015-Jun-26 11:29N 38°17' E 122°03'1011.3
2015-Jun-26 10:33N 38°13' E 122°16'1111.2
2015-Jun-26 09:33N 38°10' E 122°29'1111.4
2015-Jun-26 08:33N 38°09' E 122°44'2814.1
2015-Jun-26 06:33N 38°08' E 123°20'1514.6
2015-Jun-26 05:33N 37°54' E 123°26'  

Dump ship's entire track history